createdAt,value
2018-09-30T08:11:36.629Z,45.80
2018-09-30T08:16:53.357Z,45.90
2018-09-30T08:19:21.721Z,45.70
2018-09-30T08:21:50.569Z,46.30
2018-09-30T08:24:18.944Z,46.10
2018-09-30T08:26:47.198Z,45.50
2018-09-30T08:29:15.513Z,45.70
2018-09-30T08:31:43.843Z,45.70
2018-09-30T08:34:13.245Z,45.20
2018-09-30T08:36:41.703Z,44.70
2018-09-30T08:39:15.226Z,44.70
2018-09-30T08:41:43.590Z,44.00
2018-09-30T08:44:12.269Z,44.20
2018-09-30T08:49:18.484Z,43.40
2018-09-30T08:51:47.404Z,43.30
2018-09-30T08:54:18.015Z,42.80
2018-09-30T08:56:57.222Z,42.20
2018-09-30T08:59:28.557Z,41.10
2018-09-30T09:01:57.297Z,40.60
2018-09-30T09:04:25.996Z,40.70
2018-09-30T09:06:55.325Z,39.70
2018-09-30T09:09:24.295Z,39.70
2018-09-30T09:11:52.806Z,38.80
2018-09-30T09:14:24.753Z,38.00
2018-09-30T09:16:53.430Z,36.90
2018-09-30T09:19:28.459Z,36.40
2018-09-30T09:21:57.254Z,36.20
2018-09-30T09:24:41.132Z,35.70
2018-09-30T09:27:12.689Z,35.30
2018-09-30T09:29:41.665Z,34.30
2018-09-30T09:32:12.315Z,33.90
2018-09-30T09:34:43.793Z,33.60
2018-09-30T09:37:12.215Z,32.80
2018-09-30T09:39:50.499Z,33.10
2018-09-30T09:45:11.269Z,32.20
2018-09-30T09:47:40.339Z,32.30
2018-09-30T09:50:09.089Z,32.80
2018-09-30T09:52:38.279Z,31.90
2018-09-30T09:57:44.918Z,30.90
2018-09-30T10:00:17.717Z,31.20
2018-09-30T10:02:46.507Z,31.50
2018-09-30T10:05:15.266Z,31.40
2018-09-30T10:07:44.575Z,32.50
2018-09-30T10:10:13.029Z,31.80
2018-09-30T10:12:41.840Z,31.60
2018-09-30T10:15:12.232Z,31.00
2018-09-30T10:17:42.985Z,30.60
2018-09-30T10:20:11.366Z,30.40
2018-09-30T10:22:40.608Z,31.70
2018-09-30T10:38:18.420Z,30.40
2018-09-30T10:40:47.545Z,30.00
2018-09-30T10:43:16.102Z,30.10
2018-09-30T10:45:44.601Z,29.80
2018-09-30T10:48:13.623Z,29.40
2018-09-30T10:50:41.981Z,29.60
2018-09-30T10:53:10.870Z,29.90
2018-09-30T10:58:21.219Z,29.40
2018-09-30T11:00:50.931Z,29.40
2018-09-30T11:03:19.722Z,29.70
2018-09-30T11:05:48.027Z,28.90
2018-09-30T11:08:20.209Z,28.70
2018-09-30T11:10:48.550Z,29.20
2018-09-30T11:15:54.671Z,29.00
2018-09-30T11:18:23.452Z,28.00
2018-09-30T11:20:54.897Z,27.50
2018-09-30T11:23:24.339Z,27.90
2018-09-30T11:25:52.933Z,28.20
2018-09-30T11:28:21.145Z,28.30
2018-09-30T11:31:36.635Z,27.70
2018-09-30T11:34:05.189Z,27.30
2018-09-30T11:36:34.514Z,26.60
2018-09-30T11:39:04.025Z,27.00
2018-09-30T11:41:40.514Z,27.60
2018-09-30T11:44:08.894Z,27.70
2018-09-30T11:46:37.298Z,28.20
2018-09-30T11:49:07.924Z,27.90
2018-09-30T11:51:36.846Z,27.80
2018-09-30T11:54:05.194Z,27.60
2018-09-30T11:56:34.924Z,27.20
2018-09-30T11:59:03.351Z,27.40
2018-09-30T12:01:31.605Z,27.30
2018-09-30T12:04:00.255Z,27.40
2018-09-30T12:06:28.706Z,27.20
2018-09-30T12:08:57.394Z,27.40
2018-09-30T12:11:29.154Z,27.40
2018-09-30T12:13:57.936Z,27.80
2018-09-30T12:16:26.469Z,27.80
2018-09-30T12:18:54.850Z,28.00
2018-09-30T12:21:25.954Z,28.00
2018-09-30T12:23:59.147Z,27.50
2018-09-30T12:29:09.174Z,27.20
2018-09-30T12:31:37.954Z,27.50
2018-09-30T12:34:10.168Z,26.80
2018-09-30T12:36:39.064Z,27.10
2018-09-30T12:39:09.203Z,27.40
2018-09-30T12:41:38.012Z,27.50
2018-09-30T12:44:06.860Z,26.90
2018-09-30T12:46:35.458Z,26.80
2018-09-30T12:49:04.406Z,27.00
2018-09-30T12:51:33.536Z,27.40
2018-09-30T12:54:01.859Z,27.40
2018-09-30T12:56:30.279Z,27.20
2018-09-30T12:59:00.180Z,27.10
2018-09-30T13:01:29.328Z,27.30
2018-09-30T13:04:05.402Z,26.90
2018-09-30T13:06:33.649Z,26.80
2018-09-30T13:09:03.453Z,27.40
2018-09-30T13:11:33.200Z,26.70
2018-09-30T13:14:01.622Z,26.70
2018-09-30T13:16:30.556Z,27.10
2018-09-30T13:18:58.950Z,27.60
2018-09-30T13:21:43.098Z,27.20
2018-09-30T13:24:18.589Z,26.80
2018-09-30T13:26:47.014Z,27.30
2018-09-30T13:29:15.676Z,27.50
2018-09-30T13:31:47.609Z,27.10
2018-09-30T13:34:16.346Z,27.00
2018-09-30T13:36:45.250Z,27.10
2018-09-30T13:39:15.880Z,27.10
2018-09-30T13:44:44.924Z,27.60
2018-09-30T13:47:13.444Z,27.70
2018-09-30T13:49:45.051Z,27.80
2018-09-30T13:52:13.391Z,27.40
2018-09-30T13:54:42.667Z,27.30
2018-09-30T13:57:10.976Z,27.90
2018-09-30T13:59:39.160Z,27.70
2018-09-30T14:02:08.030Z,27.60
2018-09-30T14:04:36.894Z,28.10
2018-09-30T14:07:05.668Z,27.90
2018-09-30T14:09:34.115Z,28.10
2018-09-30T14:12:02.417Z,27.90
2018-09-30T14:14:30.915Z,28.20
2018-09-30T14:16:59.468Z,28.30
2018-09-30T14:19:28.711Z,27.80
2018-09-30T14:21:57.659Z,28.20
2018-09-30T14:24:27.133Z,28.50
2018-09-30T14:26:55.524Z,28.40
2018-09-30T14:29:23.667Z,28.20
2018-09-30T14:31:52.093Z,28.20
2018-09-30T14:34:20.388Z,28.30
2018-09-30T14:36:48.531Z,28.00
2018-09-30T14:39:16.913Z,28.30
2018-09-30T14:41:45.104Z,28.10
2018-09-30T14:44:13.408Z,28.20
2018-09-30T14:46:41.585Z,28.20
2018-09-30T14:49:09.762Z,28.60
2018-09-30T14:51:38.051Z,28.70
2018-09-30T14:54:07.284Z,28.60
2018-09-30T14:56:36.432Z,28.80
2018-09-30T14:59:04.716Z,29.10
2018-09-30T15:01:32.967Z,29.20
2018-09-30T15:04:01.244Z,28.90
2018-09-30T15:06:29.551Z,29.10
2018-09-30T15:08:57.799Z,29.10
2018-09-30T15:11:28.371Z,29.20
2018-09-30T15:13:56.647Z,29.20
2018-09-30T15:16:24.877Z,29.10
2018-09-30T15:18:53.107Z,29.30
2018-09-30T15:21:21.633Z,29.40
2018-09-30T15:23:49.953Z,29.50
2018-09-30T15:26:18.147Z,29.70
2018-09-30T15:28:46.543Z,29.80
2018-09-30T15:31:14.803Z,30.10
2018-09-30T15:33:43.192Z,29.90
2018-09-30T15:36:11.498Z,29.70
2018-09-30T15:38:39.751Z,29.90
2018-09-30T15:41:08.022Z,30.00
2018-09-30T15:43:36.262Z,29.80
2018-09-30T15:46:04.639Z,29.80
2018-09-30T15:48:32.874Z,29.90
2018-09-30T15:51:01.083Z,30.00
2018-09-30T15:53:29.366Z,30.00
2018-09-30T15:55:57.626Z,29.70
2018-09-30T15:58:27.464Z,29.90
2018-09-30T16:01:03.925Z,29.90
2018-09-30T16:03:32.157Z,30.00
2018-09-30T16:06:00.443Z,30.20
2018-09-30T16:08:28.675Z,30.60
2018-09-30T16:10:56.853Z,30.80
2018-09-30T16:13:25.093Z,31.00
2018-09-30T16:15:53.509Z,31.10
2018-09-30T16:18:38.455Z,31.20
2018-09-30T16:21:24.360Z,31.50
2018-09-30T16:23:52.513Z,31.70
2018-09-30T16:26:29.027Z,31.90
2018-09-30T16:28:57.178Z,32.00
2018-09-30T16:31:25.538Z,31.90
2018-09-30T16:33:53.724Z,32.00
2018-09-30T16:36:21.921Z,32.40
2018-09-30T16:38:50.172Z,32.50
2018-09-30T16:41:18.446Z,32.80
2018-09-30T16:43:46.740Z,33.10
2018-09-30T16:46:14.985Z,34.20
2018-09-30T16:48:50.111Z,33.60
2018-09-30T16:51:18.334Z,34.00
2018-09-30T16:53:46.549Z,33.90
2018-09-30T16:59:19.809Z,36.00
2018-09-30T17:01:48.031Z,36.30
2018-09-30T17:04:16.306Z,36.20
2018-09-30T17:06:44.730Z,36.60
2018-09-30T17:09:12.878Z,36.60
2018-09-30T17:11:41.153Z,37.10
2018-09-30T17:14:09.680Z,37.40
2018-09-30T17:16:38.013Z,37.50
2018-09-30T17:19:06.361Z,38.30
2018-09-30T17:21:34.522Z,38.70
2018-09-30T17:24:02.777Z,39.10
2018-09-30T17:26:31.049Z,39.50
2018-09-30T17:28:59.341Z,40.00
2018-09-30T17:31:27.618Z,40.80
2018-09-30T17:33:55.861Z,40.50
2018-09-30T17:36:24.040Z,41.00
2018-09-30T17:38:52.243Z,41.50
2018-09-30T17:41:20.515Z,41.50
2018-09-30T17:43:48.742Z,41.80
2018-09-30T17:46:16.935Z,41.90
2018-09-30T17:48:45.140Z,41.90
2018-09-30T17:51:13.637Z,42.10
2018-09-30T17:53:43.773Z,42.50
2018-09-30T17:56:12.746Z,42.80
2018-09-30T17:58:40.940Z,42.70
2018-09-30T18:01:09.177Z,43.00
2018-09-30T18:03:37.435Z,43.30
2018-09-30T18:06:05.678Z,43.30
2018-09-30T18:08:33.882Z,43.30
2018-09-30T18:11:02.181Z,43.00
2018-09-30T18:13:30.910Z,42.60
2018-09-30T18:15:59.125Z,42.70
2018-09-30T18:18:27.362Z,43.50
2018-09-30T18:20:55.647Z,43.30
2018-09-30T18:23:23.850Z,42.30
2018-09-30T18:25:52.282Z,41.50
2018-09-30T18:28:20.543Z,41.10
2018-09-30T18:30:48.922Z,40.60
2018-09-30T18:33:17.187Z,39.60
2018-09-30T18:35:46.060Z,39.30
2018-09-30T18:38:14.296Z,39.70
2018-09-30T18:40:47.727Z,38.30
2018-09-30T18:43:15.999Z,38.80
2018-09-30T18:45:44.582Z,38.60
2018-09-30T18:48:12.884Z,38.40
2018-09-30T18:50:41.803Z,38.90
2018-09-30T18:53:10.154Z,39.00
2018-09-30T18:55:38.401Z,38.80
2018-09-30T18:58:06.673Z,38.90
2018-09-30T19:00:34.870Z,39.30
2018-09-30T19:03:03.600Z,39.60
2018-09-30T19:05:32.064Z,39.40
2018-09-30T19:08:00.445Z,39.60
2018-09-30T19:10:28.773Z,39.30
2018-09-30T19:12:57.205Z,39.20
2018-09-30T19:15:25.596Z,39.20
2018-09-30T19:17:54.481Z,38.90
2018-09-30T19:20:22.828Z,39.20
2018-09-30T19:22:51.989Z,40.00
2018-09-30T19:25:20.382Z,39.10
2018-09-30T19:27:48.765Z,39.10
2018-09-30T19:30:17.181Z,39.10
2018-09-30T19:32:45.477Z,39.00
2018-09-30T19:35:14.048Z,39.20
2018-09-30T19:37:42.435Z,39.60
2018-09-30T19:40:10.887Z,39.80
2018-09-30T19:42:39.227Z,40.80
2018-09-30T19:45:07.867Z,41.30
2018-09-30T19:47:36.223Z,41.20
2018-09-30T19:50:04.693Z,42.60
2018-09-30T19:52:33.013Z,42.60
2018-09-30T19:55:01.381Z,43.80
2018-09-30T19:57:45.281Z,44.50
2018-09-30T20:00:14.234Z,45.20
2018-09-30T20:02:42.525Z,45.90
2018-09-30T20:05:10.872Z,46.00
2018-09-30T20:07:39.122Z,46.50
2018-09-30T20:10:07.381Z,46.90
2018-09-30T20:12:35.655Z,47.50
2018-09-30T20:15:04.045Z,48.60
2018-09-30T20:17:32.342Z,48.80
2018-09-30T20:20:00.586Z,49.10
2018-09-30T20:22:28.965Z,49.30
2018-09-30T20:24:57.288Z,50.20
2018-09-30T20:27:25.552Z,50.40
2018-09-30T20:29:54.308Z,50.60
2018-09-30T20:32:22.534Z,50.80
2018-09-30T20:34:50.841Z,50.90
2018-09-30T20:37:19.033Z,50.90
2018-09-30T20:39:47.288Z,51.10
2018-09-30T20:42:15.489Z,51.50
2018-09-30T20:44:43.763Z,51.70
2018-09-30T20:47:12.151Z,51.80
2018-09-30T20:49:41.020Z,52.10
2018-09-30T20:52:09.665Z,52.30
2018-09-30T20:54:38.787Z,52.60
2018-09-30T20:57:07.141Z,52.90
2018-09-30T20:59:36.415Z,53.20
2018-09-30T21:02:04.790Z,53.40
2018-09-30T21:04:33.091Z,53.70
2018-09-30T21:07:01.827Z,53.70
2018-09-30T21:09:30.237Z,53.70
2018-09-30T21:11:58.555Z,53.60
2018-09-30T21:14:27.231Z,53.50
2018-09-30T21:16:56.061Z,53.90
2018-09-30T21:19:24.314Z,54.40
2018-09-30T21:21:52.594Z,54.50
2018-09-30T21:24:21.327Z,54.80
2018-09-30T21:26:49.725Z,55.00
2018-09-30T21:29:18.192Z,55.30
2018-09-30T21:31:46.593Z,55.90
2018-09-30T21:34:14.859Z,55.50
2018-09-30T21:36:43.025Z,55.90
2018-09-30T21:39:11.922Z,56.30
2018-09-30T21:41:40.189Z,56.50
2018-09-30T21:44:08.624Z,56.20
2018-09-30T21:46:37.155Z,56.20
2018-09-30T21:49:05.530Z,56.40
2018-09-30T21:51:34.412Z,56.80
2018-09-30T21:54:02.684Z,57.10
2018-09-30T21:56:30.910Z,56.90
2018-09-30T21:58:59.148Z,56.60
2018-09-30T22:01:29.647Z,56.70
2018-09-30T22:03:57.688Z,56.70
2018-09-30T22:06:25.866Z,56.50
2018-09-30T22:08:54.074Z,57.10
2018-09-30T22:11:22.317Z,57.40
2018-09-30T22:13:50.558Z,57.40
2018-09-30T22:16:18.882Z,57.30
2018-09-30T22:18:47.042Z,56.80
2018-09-30T22:21:15.261Z,56.60
2018-09-30T22:23:43.496Z,56.90
2018-09-30T22:26:11.666Z,56.80
2018-09-30T22:28:39.977Z,56.50
2018-09-30T22:31:08.148Z,56.60
2018-09-30T22:33:36.346Z,56.50
2018-09-30T22:36:04.604Z,56.60
2018-09-30T22:38:32.914Z,56.40
2018-09-30T22:41:01.137Z,56.60
2018-09-30T22:43:29.320Z,56.50
2018-09-30T22:45:58.108Z,56.80
2018-09-30T22:48:26.962Z,57.10
2018-09-30T22:50:55.152Z,57.50
2018-09-30T22:53:23.455Z,58.00
2018-09-30T22:55:51.524Z,58.40
2018-09-30T22:58:19.744Z,58.90
2018-09-30T23:00:47.928Z,59.10
2018-09-30T23:03:16.226Z,59.30
2018-09-30T23:05:44.428Z,59.20
2018-09-30T23:08:12.665Z,59.10
2018-09-30T23:10:40.886Z,59.40
2018-09-30T23:13:09.200Z,59.60
2018-09-30T23:15:37.383Z,59.50
2018-09-30T23:18:05.582Z,59.50
2018-09-30T23:20:33.764Z,59.30
2018-09-30T23:23:01.995Z,58.60
2018-09-30T23:25:30.158Z,58.30
2018-09-30T23:27:59.768Z,57.80
2018-09-30T23:30:27.908Z,56.90
2018-09-30T23:32:56.170Z,56.80
2018-09-30T23:35:24.566Z,56.90
2018-09-30T23:37:53.323Z,57.70
2018-09-30T23:40:21.515Z,57.40
2018-09-30T23:42:49.697Z,57.20
2018-09-30T23:45:17.832Z,56.60
2018-09-30T23:47:46.044Z,55.80
2018-09-30T23:50:14.952Z,55.60
2018-09-30T23:52:43.183Z,55.60
2018-09-30T23:55:11.383Z,55.90
2018-09-30T23:57:39.752Z,55.90
